sensor_id;sensor_type;location;lat;lon;timestamp;P1;durP1;ratioP1;P2;durP2;ratioP2
7657;SDS011;8462;53.156;8.220;2022-12-18T00:02:01;64.80;;;24.60;;
7657;SDS011;8462;53.156;8.220;2022-12-18T00:04:28;67.17;;;23.17;;
7657;SDS011;8462;53.156;8.220;2022-12-18T00:06:55;68.80;;;24.10;;
7657;SDS011;8462;53.156;8.220;2022-12-18T00:09:22;73.20;;;23.03;;
7657;SDS011;8462;53.156;8.220;2022-12-18T00:11:50;67.77;;;23.30;;
7657;SDS011;8462;53.156;8.220;2022-12-18T00:14:17;69.40;;;24.37;;
7657;SDS011;8462;53.156;8.220;2022-12-18T00:16:45;57.20;;;22.03;;
7657;SDS011;8462;53.156;8.220;2022-12-18T00:19:12;56.70;;;23.23;;
7657;SDS011;8462;53.156;8.220;2022-12-18T00:21:40;62.30;;;23.90;;
7657;SDS011;8462;53.156;8.220;2022-12-18T00:24:08;68.40;;;25.30;;
7657;SDS011;8462;53.156;8.220;2022-12-18T00:26:36;68.70;;;24.33;;
7657;SDS011;8462;53.156;8.220;2022-12-18T00:29:05;66.53;;;23.20;;
7657;SDS011;8462;53.156;8.220;2022-12-18T00:31:34;64.13;;;23.93;;
7657;SDS011;8462;53.156;8.220;2022-12-18T00:34:01;77.10;;;24.30;;
7657;SDS011;8462;53.156;8.220;2022-12-18T00:36:30;69.30;;;24.43;;
7657;SDS011;8462;53.156;8.220;2022-12-18T00:38:58;69.20;;;24.07;;
7657;SDS011;8462;53.156;8.220;2022-12-18T00:41:29;70.83;;;24.60;;
7657;SDS011;8462;53.156;8.220;2022-12-18T00:44:16;63.93;;;22.27;;
7657;SDS011;8462;53.156;8.220;2022-12-18T00:46:44;65.17;;;22.80;;
7657;SDS011;8462;53.156;8.220;2022-12-18T00:49:12;59.53;;;23.73;;
7657;SDS011;8462;53.156;8.220;2022-12-18T00:51:39;60.60;;;23.67;;
7657;SDS011;8462;53.156;8.220;2022-12-18T00:54:06;58.13;;;24.03;;
7657;SDS011;8462;53.156;8.220;2022-12-18T00:56:34;59.90;;;21.37;;
7657;SDS011;8462;53.156;8.220;2022-12-18T00:59:02;65.07;;;24.83;;
7657;SDS011;8462;53.156;8.220;2022-12-18T01:01:31;63.43;;;21.70;;
7657;SDS011;8462;53.156;8.220;2022-12-18T01:03:59;61.03;;;22.40;;
7657;SDS011;8462;53.156;8.220;2022-12-18T01:06:27;53.00;;;21.23;;
7657;SDS011;8462;53.156;8.220;2022-12-18T01:08:54;50.53;;;20.97;;
7657;SDS011;8462;53.156;8.220;2022-12-18T01:11:21;55.83;;;21.93;;
7657;SDS011;8462;53.156;8.220;2022-12-18T01:13:48;50.30;;;21.07;;
7657;SDS011;8462;53.156;8.220;2022-12-18T01:16:16;45.63;;;18.37;;
7657;SDS011;8462;53.156;8.220;2022-12-18T01:18:45;47.13;;;19.73;;
7657;SDS011;8462;53.156;8.220;2022-12-18T01:21:16;38.27;;;17.83;;
7657;SDS011;8462;53.156;8.220;2022-12-18T01:23:43;49.27;;;19.03;;
7657;SDS011;8462;53.156;8.220;2022-12-18T01:26:11;52.60;;;20.07;;
7657;SDS011;8462;53.156;8.220;2022-12-18T01:28:40;47.40;;;17.90;;
7657;SDS011;8462;53.156;8.220;2022-12-18T01:31:11;38.67;;;18.40;;
7657;SDS011;8462;53.156;8.220;2022-12-18T01:33:39;42.10;;;17.97;;
7657;SDS011;8462;53.156;8.220;2022-12-18T01:36:08;53.23;;;20.07;;
7657;SDS011;8462;53.156;8.220;2022-12-18T01:38:40;49.40;;;18.80;;
7657;SDS011;8462;53.156;8.220;2022-12-18T01:41:07;41.37;;;16.13;;
7657;SDS011;8462;53.156;8.220;2022-12-18T01:43:48;40.43;;;17.23;;
7657;SDS011;8462;53.156;8.220;2022-12-18T01:46:20;38.87;;;15.80;;
7657;SDS011;8462;53.156;8.220;2022-12-18T01:48:52;41.10;;;17.13;;
7657;SDS011;8462;53.156;8.220;2022-12-18T01:51:24;38.53;;;16.20;;
7657;SDS011;8462;53.156;8.220;2022-12-18T01:53:53;41.47;;;14.87;;
7657;SDS011;8462;53.156;8.220;2022-12-18T01:56:20;31.40;;;15.30;;
7657;SDS011;8462;53.156;8.220;2022-12-18T01:58:51;37.67;;;15.20;;
7657;SDS011;8462;53.156;8.220;2022-12-18T02:01:23;40.60;;;15.40;;
7657;SDS011;8462;53.156;8.220;2022-12-18T02:03:51;38.40;;;16.80;;
7657;SDS011;8462;53.156;8.220;2022-12-18T02:06:20;35.67;;;14.00;;
7657;SDS011;8462;53.156;8.220;2022-12-18T02:08:57;40.00;;;16.67;;
7657;SDS011;8462;53.156;8.220;2022-12-18T02:11:37;32.13;;;15.67;;
7657;SDS011;8462;53.156;8.220;2022-12-18T02:14:12;36.57;;;16.17;;
7657;SDS011;8462;53.156;8.220;2022-12-18T02:16:45;32.47;;;14.90;;
7657;SDS011;8462;53.156;8.220;2022-12-18T02:19:21;41.90;;;14.83;;
7657;SDS011;8462;53.156;8.220;2022-12-18T02:22:06;35.93;;;14.77;;
7657;SDS011;8462;53.156;8.220;2022-12-18T02:24:48;33.90;;;16.07;;
7657;SDS011;8462;53.156;8.220;2022-12-18T02:27:27;35.60;;;15.10;;
7657;SDS011;8462;53.156;8.220;2022-12-18T02:29:57;33.23;;;14.47;;
7657;SDS011;8462;53.156;8.220;2022-12-18T02:32:28;39.10;;;16.03;;
7657;SDS011;8462;53.156;8.220;2022-12-18T02:34:58;32.27;;;15.77;;
7657;SDS011;8462;53.156;8.220;2022-12-18T02:37:28;34.53;;;15.80;;
7657;SDS011;8462;53.156;8.220;2022-12-18T02:40:00;37.90;;;15.13;;
7657;SDS011;8462;53.156;8.220;2022-12-18T02:42:32;34.47;;;14.70;;
7657;SDS011;8462;53.156;8.220;2022-12-18T02:45:01;35.07;;;14.27;;
7657;SDS011;8462;53.156;8.220;2022-12-18T02:47:29;31.07;;;13.90;;
7657;SDS011;8462;53.156;8.220;2022-12-18T02:50:02;33.97;;;15.67;;
7657;SDS011;8462;53.156;8.220;2022-12-18T02:52:39;32.60;;;12.83;;
7657;SDS011;8462;53.156;8.220;2022-12-18T02:55:18;32.30;;;13.77;;
7657;SDS011;8462;53.156;8.220;2022-12-18T02:58:02;25.67;;;12.63;;
7657;SDS011;8462;53.156;8.220;2022-12-18T03:00:37;31.07;;;14.73;;
7657;SDS011;8462;53.156;8.220;2022-12-18T03:03:07;30.93;;;13.30;;
7657;SDS011;8462;53.156;8.220;2022-12-18T03:05:40;32.37;;;15.47;;
7657;SDS011;8462;53.156;8.220;2022-12-18T03:08:13;31.17;;;14.37;;
7657;SDS011;8462;53.156;8.220;2022-12-18T03:10:45;30.10;;;14.23;;
7657;SDS011;8462;53.156;8.220;2022-12-18T03:13:19;28.60;;;14.07;;
7657;SDS011;8462;53.156;8.220;2022-12-18T03:15:57;25.00;;;13.33;;
7657;SDS011;8462;53.156;8.220;2022-12-18T03:18:27;32.70;;;14.73;;
7657;SDS011;8462;53.156;8.220;2022-12-18T03:21:00;36.13;;;13.57;;
7657;SDS011;8462;53.156;8.220;2022-12-18T03:23:32;31.70;;;14.27;;
7657;SDS011;8462;53.156;8.220;2022-12-18T03:26:04;33.53;;;14.63;;
7657;SDS011;8462;53.156;8.220;2022-12-18T03:28:38;34.53;;;14.93;;
7657;SDS011;8462;53.156;8.220;2022-12-18T03:31:11;31.40;;;14.20;;
7657;SDS011;8462;53.156;8.220;2022-12-18T03:33:40;33.23;;;16.30;;
7657;SDS011;8462;53.156;8.220;2022-12-18T03:36:13;26.90;;;13.63;;
7657;SDS011;8462;53.156;8.220;2022-12-18T03:38:41;25.30;;;13.47;;
7657;SDS011;8462;53.156;8.220;2022-12-18T03:41:11;34.53;;;14.20;;
7657;SDS011;8462;53.156;8.220;2022-12-18T03:44:23;27.73;;;14.23;;
7657;SDS011;8462;53.156;8.220;2022-12-18T03:46:58;30.83;;;13.67;;
7657;SDS011;8462;53.156;8.220;2022-12-18T03:49:33;31.60;;;14.90;;
7657;SDS011;8462;53.156;8.220;2022-12-18T03:52:06;29.03;;;13.40;;
7657;SDS011;8462;53.156;8.220;2022-12-18T03:54:39;26.90;;;12.63;;
7657;SDS011;8462;53.156;8.220;2022-12-18T03:57:13;32.03;;;13.73;;
7657;SDS011;8462;53.156;8.220;2022-12-18T03:59:44;27.20;;;13.43;;
7657;SDS011;8462;53.156;8.220;2022-12-18T04:02:16;27.97;;;13.87;;
7657;SDS011;8462;53.156;8.220;2022-12-18T04:04:44;20.37;;;11.40;;
7657;SDS011;8462;53.156;8.220;2022-12-18T04:07:15;25.23;;;12.73;;
7657;SDS011;8462;53.156;8.220;2022-12-18T04:09:43;28.53;;;13.73;;
7657;SDS011;8462;53.156;8.220;2022-12-18T04:12:13;27.87;;;13.83;;
7657;SDS011;8462;53.156;8.220;2022-12-18T04:14:40;28.93;;;13.20;;
7657;SDS011;8462;53.156;8.220;2022-12-18T04:17:09;25.90;;;13.30;;
7657;SDS011;8462;53.156;8.220;2022-12-18T04:19:36;26.13;;;13.27;;
7657;SDS011;8462;53.156;8.220;2022-12-18T04:22:03;31.63;;;12.33;;
7657;SDS011;8462;53.156;8.220;2022-12-18T04:24:36;26.80;;;12.23;;
7657;SDS011;8462;53.156;8.220;2022-12-18T04:27:10;30.87;;;13.70;;
7657;SDS011;8462;53.156;8.220;2022-12-18T04:29:42;24.37;;;12.80;;
7657;SDS011;8462;53.156;8.220;2022-12-18T04:32:10;23.83;;;12.47;;
7657;SDS011;8462;53.156;8.220;2022-12-18T04:34:38;25.67;;;11.97;;
7657;SDS011;8462;53.156;8.220;2022-12-18T04:37:05;23.77;;;13.07;;
7657;SDS011;8462;53.156;8.220;2022-12-18T04:39:33;22.87;;;10.93;;
7657;SDS011;8462;53.156;8.220;2022-12-18T04:42:05;27.07;;;11.87;;
7657;SDS011;8462;53.156;8.220;2022-12-18T04:44:33;25.47;;;11.60;;
7657;SDS011;8462;53.156;8.220;2022-12-18T04:47:00;23.57;;;12.43;;
7657;SDS011;8462;53.156;8.220;2022-12-18T04:49:28;24.70;;;12.37;;
7657;SDS011;8462;53.156;8.220;2022-12-18T04:51:55;24.37;;;11.93;;
7657;SDS011;8462;53.156;8.220;2022-12-18T04:54:21;23.37;;;11.83;;
7657;SDS011;8462;53.156;8.220;2022-12-18T04:56:49;24.00;;;10.97;;
7657;SDS011;8462;53.156;8.220;2022-12-18T04:59:16;25.93;;;11.60;;
7657;SDS011;8462;53.156;8.220;2022-12-18T05:01:42;20.13;;;9.60;;
7657;SDS011;8462;53.156;8.220;2022-12-18T05:04:10;27.67;;;11.80;;
7657;SDS011;8462;53.156;8.220;2022-12-18T05:06:39;19.03;;;10.70;;
7657;SDS011;8462;53.156;8.220;2022-12-18T05:09:06;20.60;;;10.23;;
7657;SDS011;8462;53.156;8.220;2022-12-18T05:11:33;25.27;;;11.10;;
7657;SDS011;8462;53.156;8.220;2022-12-18T05:14:04;20.93;;;10.53;;
7657;SDS011;8462;53.156;8.220;2022-12-18T05:16:31;21.70;;;11.17;;
7657;SDS011;8462;53.156;8.220;2022-12-18T05:18:58;16.87;;;9.93;;
7657;SDS011;8462;53.156;8.220;2022-12-18T05:21:25;19.60;;;10.90;;
7657;SDS011;8462;53.156;8.220;2022-12-18T05:23:53;20.67;;;10.53;;
7657;SDS011;8462;53.156;8.220;2022-12-18T05:26:20;26.27;;;9.97;;
7657;SDS011;8462;53.156;8.220;2022-12-18T05:28:47;21.63;;;10.97;;
7657;SDS011;8462;53.156;8.220;2022-12-18T05:31:13;17.63;;;10.70;;
7657;SDS011;8462;53.156;8.220;2022-12-18T05:33:41;23.40;;;11.47;;
7657;SDS011;8462;53.156;8.220;2022-12-18T05:36:08;16.93;;;9.87;;
7657;SDS011;8462;53.156;8.220;2022-12-18T05:38:36;19.17;;;10.07;;
7657;SDS011;8462;53.156;8.220;2022-12-18T05:41:06;18.77;;;9.70;;
7657;SDS011;8462;53.156;8.220;2022-12-18T05:43:34;22.77;;;9.67;;
7657;SDS011;8462;53.156;8.220;2022-12-18T05:46:03;18.13;;;9.13;;
7657;SDS011;8462;53.156;8.220;2022-12-18T05:48:32;15.63;;;8.67;;
7657;SDS011;8462;53.156;8.220;2022-12-18T05:51:03;14.70;;;9.37;;
7657;SDS011;8462;53.156;8.220;2022-12-18T05:53:32;18.67;;;9.07;;
7657;SDS011;8462;53.156;8.220;2022-12-18T05:55:59;18.63;;;9.60;;
7657;SDS011;8462;53.156;8.220;2022-12-18T05:58:29;19.30;;;9.60;;
7657;SDS011;8462;53.156;8.220;2022-12-18T06:00:57;17.27;;;9.47;;
7657;SDS011;8462;53.156;8.220;2022-12-18T06:03:31;19.47;;;9.03;;
7657;SDS011;8462;53.156;8.220;2022-12-18T06:05:58;17.53;;;8.67;;
7657;SDS011;8462;53.156;8.220;2022-12-18T06:08:25;18.07;;;9.23;;
7657;SDS011;8462;53.156;8.220;2022-12-18T06:10:52;15.50;;;8.70;;
7657;SDS011;8462;53.156;8.220;2022-12-18T06:13:19;16.67;;;9.27;;
7657;SDS011;8462;53.156;8.220;2022-12-18T06:15:47;12.87;;;8.13;;
7657;SDS011;8462;53.156;8.220;2022-12-18T06:18:14;16.30;;;9.67;;
7657;SDS011;8462;53.156;8.220;2022-12-18T06:20:41;16.67;;;8.77;;
7657;SDS011;8462;53.156;8.220;2022-12-18T06:23:08;19.63;;;9.33;;
7657;SDS011;8462;53.156;8.220;2022-12-18T06:25:37;17.17;;;9.27;;
7657;SDS011;8462;53.156;8.220;2022-12-18T06:28:04;22.93;;;9.50;;
7657;SDS011;8462;53.156;8.220;2022-12-18T06:30:31;15.83;;;8.47;;
7657;SDS011;8462;53.156;8.220;2022-12-18T06:32:59;19.73;;;8.80;;
7657;SDS011;8462;53.156;8.220;2022-12-18T06:35:26;19.30;;;8.73;;
7657;SDS011;8462;53.156;8.220;2022-12-18T06:37:53;18.77;;;9.37;;
7657;SDS011;8462;53.156;8.220;2022-12-18T06:40:20;15.80;;;7.93;;
7657;SDS011;8462;53.156;8.220;2022-12-18T06:42:47;18.97;;;9.03;;
7657;SDS011;8462;53.156;8.220;2022-12-18T06:45:14;14.23;;;8.70;;
7657;SDS011;8462;53.156;8.220;2022-12-18T06:47:41;13.03;;;7.73;;
7657;SDS011;8462;53.156;8.220;2022-12-18T06:50:10;17.17;;;8.53;;
7657;SDS011;8462;53.156;8.220;2022-12-18T06:52:37;10.50;;;6.83;;
7657;SDS011;8462;53.156;8.220;2022-12-18T06:55:05;15.50;;;7.73;;
7657;SDS011;8462;53.156;8.220;2022-12-18T06:57:36;11.37;;;6.90;;
7657;SDS011;8462;53.156;8.220;2022-12-18T07:00:04;12.20;;;7.13;;
7657;SDS011;8462;53.156;8.220;2022-12-18T07:02:33;12.90;;;7.60;;
7657;SDS011;8462;53.156;8.220;2022-12-18T07:05:00;12.90;;;8.10;;
7657;SDS011;8462;53.156;8.220;2022-12-18T07:07:28;17.87;;;9.10;;
7657;SDS011;8462;53.156;8.220;2022-12-18T07:09:55;13.13;;;7.23;;
7657;SDS011;8462;53.156;8.220;2022-12-18T07:12:22;14.03;;;7.43;;
7657;SDS011;8462;53.156;8.220;2022-12-18T07:14:49;13.77;;;7.33;;
7657;SDS011;8462;53.156;8.220;2022-12-18T07:17:16;15.13;;;7.83;;
7657;SDS011;8462;53.156;8.220;2022-12-18T07:19:43;12.43;;;7.33;;
7657;SDS011;8462;53.156;8.220;2022-12-18T07:22:10;14.80;;;7.33;;
7657;SDS011;8462;53.156;8.220;2022-12-18T07:24:38;11.30;;;7.33;;
7657;SDS011;8462;53.156;8.220;2022-12-18T07:27:05;13.83;;;7.97;;
7657;SDS011;8462;53.156;8.220;2022-12-18T07:29:31;17.70;;;7.70;;
7657;SDS011;8462;53.156;8.220;2022-12-18T07:31:58;10.60;;;7.20;;
7657;SDS011;8462;53.156;8.220;2022-12-18T07:34:25;18.47;;;10.50;;
7657;SDS011;8462;53.156;8.220;2022-12-18T07:36:52;13.33;;;7.73;;
7657;SDS011;8462;53.156;8.220;2022-12-18T07:39:19;18.43;;;9.97;;
7657;SDS011;8462;53.156;8.220;2022-12-18T07:41:48;11.43;;;7.23;;
7657;SDS011;8462;53.156;8.220;2022-12-18T07:44:38;14.67;;;7.63;;
7657;SDS011;8462;53.156;8.220;2022-12-18T07:47:05;14.57;;;7.03;;
7657;SDS011;8462;53.156;8.220;2022-12-18T07:49:32;12.33;;;6.67;;
7657;SDS011;8462;53.156;8.220;2022-12-18T07:51:59;13.23;;;7.30;;
7657;SDS011;8462;53.156;8.220;2022-12-18T07:54:26;16.10;;;7.23;;
7657;SDS011;8462;53.156;8.220;2022-12-18T07:56:55;12.43;;;7.30;;
7657;SDS011;8462;53.156;8.220;2022-12-18T07:59:24;13.33;;;7.73;;
7657;SDS011;8462;53.156;8.220;2022-12-18T08:01:51;10.50;;;6.67;;
7657;SDS011;8462;53.156;8.220;2022-12-18T08:04:18;11.30;;;6.90;;
7657;SDS011;8462;53.156;8.220;2022-12-18T08:06:45;12.00;;;6.40;;
7657;SDS011;8462;53.156;8.220;2022-12-18T08:09:12;13.00;;;5.97;;
7657;SDS011;8462;53.156;8.220;2022-12-18T08:11:39;14.00;;;8.30;;
7657;SDS011;8462;53.156;8.220;2022-12-18T08:14:07;16.53;;;8.10;;
7657;SDS011;8462;53.156;8.220;2022-12-18T08:16:34;14.43;;;7.63;;
7657;SDS011;8462;53.156;8.220;2022-12-18T08:19:01;13.93;;;7.43;;
7657;SDS011;8462;53.156;8.220;2022-12-18T08:21:29;11.70;;;6.87;;
7657;SDS011;8462;53.156;8.220;2022-12-18T08:23:58;11.60;;;6.40;;
7657;SDS011;8462;53.156;8.220;2022-12-18T08:26:27;13.10;;;7.50;;
7657;SDS011;8462;53.156;8.220;2022-12-18T08:28:55;12.60;;;7.10;;
7657;SDS011;8462;53.156;8.220;2022-12-18T08:31:25;14.23;;;7.47;;
7657;SDS011;8462;53.156;8.220;2022-12-18T08:33:53;15.43;;;8.20;;
7657;SDS011;8462;53.156;8.220;2022-12-18T08:36:20;10.83;;;6.27;;
7657;SDS011;8462;53.156;8.220;2022-12-18T08:38:48;11.07;;;6.47;;
7657;SDS011;8462;53.156;8.220;2022-12-18T08:41:16;11.33;;;6.43;;
7657;SDS011;8462;53.156;8.220;2022-12-18T08:43:43;8.57;;;6.37;;
7657;SDS011;8462;53.156;8.220;2022-12-18T08:46:32;9.73;;;6.20;;
7657;SDS011;8462;53.156;8.220;2022-12-18T08:49:01;9.90;;;6.07;;
7657;SDS011;8462;53.156;8.220;2022-12-18T08:51:28;10.37;;;6.63;;
7657;SDS011;8462;53.156;8.220;2022-12-18T08:53:55;12.67;;;6.30;;
7657;SDS011;8462;53.156;8.220;2022-12-18T08:56:21;14.10;;;7.57;;
7657;SDS011;8462;53.156;8.220;2022-12-18T08:58:50;10.27;;;6.33;;
7657;SDS011;8462;53.156;8.220;2022-12-18T09:01:18;12.20;;;6.63;;
7657;SDS011;8462;53.156;8.220;2022-12-18T09:03:48;11.80;;;6.47;;
7657;SDS011;8462;53.156;8.220;2022-12-18T09:06:16;14.77;;;7.67;;
7657;SDS011;8462;53.156;8.220;2022-12-18T09:08:44;16.67;;;9.97;;
7657;SDS011;8462;53.156;8.220;2022-12-18T09:11:12;10.67;;;6.93;;
7657;SDS011;8462;53.156;8.220;2022-12-18T09:13:40;12.90;;;7.30;;
7657;SDS011;8462;53.156;8.220;2022-12-18T09:16:07;12.53;;;7.50;;
7657;SDS011;8462;53.156;8.220;2022-12-18T09:18:34;12.77;;;7.13;;
7657;SDS011;8462;53.156;8.220;2022-12-18T09:21:08;12.50;;;6.80;;
7657;SDS011;8462;53.156;8.220;2022-12-18T09:23:36;11.10;;;5.93;;
7657;SDS011;8462;53.156;8.220;2022-12-18T09:26:03;11.40;;;7.17;;
7657;SDS011;8462;53.156;8.220;2022-12-18T09:28:30;13.80;;;7.27;;
7657;SDS011;8462;53.156;8.220;2022-12-18T09:30:56;9.67;;;6.20;;
7657;SDS011;8462;53.156;8.220;2022-12-18T09:33:24;11.87;;;6.40;;
7657;SDS011;8462;53.156;8.220;2022-12-18T09:35:51;13.83;;;7.03;;
7657;SDS011;8462;53.156;8.220;2022-12-18T09:38:19;10.27;;;6.07;;
7657;SDS011;8462;53.156;8.220;2022-12-18T09:40:48;10.13;;;6.27;;
7657;SDS011;8462;53.156;8.220;2022-12-18T09:43:19;11.00;;;6.17;;
7657;SDS011;8462;53.156;8.220;2022-12-18T09:45:49;10.90;;;6.33;;
7657;SDS011;8462;53.156;8.220;2022-12-18T09:48:20;14.80;;;7.40;;
7657;SDS011;8462;53.156;8.220;2022-12-18T09:50:50;13.00;;;7.37;;
7657;SDS011;8462;53.156;8.220;2022-12-18T09:53:21;11.83;;;7.33;;
7657;SDS011;8462;53.156;8.220;2022-12-18T09:55:52;11.10;;;6.77;;
7657;SDS011;8462;53.156;8.220;2022-12-18T09:58:23;16.43;;;8.97;;
7657;SDS011;8462;53.156;8.220;2022-12-18T10:00:54;14.93;;;9.13;;
7657;SDS011;8462;53.156;8.220;2022-12-18T10:03:21;11.03;;;7.13;;
7657;SDS011;8462;53.156;8.220;2022-12-18T10:05:51;9.03;;;5.37;;
7657;SDS011;8462;53.156;8.220;2022-12-18T10:08:29;10.97;;;7.10;;
7657;SDS011;8462;53.156;8.220;2022-12-18T10:11:03;11.87;;;6.53;;
7657;SDS011;8462;53.156;8.220;2022-12-18T10:13:46;11.77;;;7.13;;
7657;SDS011;8462;53.156;8.220;2022-12-18T10:16:18;12.67;;;7.40;;
7657;SDS011;8462;53.156;8.220;2022-12-18T10:19:03;14.30;;;7.17;;
7657;SDS011;8462;53.156;8.220;2022-12-18T10:21:45;14.07;;;7.50;;
7657;SDS011;8462;53.156;8.220;2022-12-18T10:24:24;14.60;;;6.53;;
7657;SDS011;8462;53.156;8.220;2022-12-18T10:26:58;10.43;;;6.47;;
7657;SDS011;8462;53.156;8.220;2022-12-18T10:29:34;9.47;;;5.67;;
7657;SDS011;8462;53.156;8.220;2022-12-18T10:32:02;12.20;;;6.83;;
7657;SDS011;8462;53.156;8.220;2022-12-18T10:34:30;16.93;;;7.90;;
7657;SDS011;8462;53.156;8.220;2022-12-18T10:36:57;17.87;;;9.80;;
7657;SDS011;8462;53.156;8.220;2022-12-18T10:39:27;10.97;;;6.67;;
7657;SDS011;8462;53.156;8.220;2022-12-18T10:41:57;11.27;;;6.80;;
7657;SDS011;8462;53.156;8.220;2022-12-18T10:44:36;7.17;;;4.20;;
7657;SDS011;8462;53.156;8.220;2022-12-18T10:47:04;9.77;;;6.07;;
7657;SDS011;8462;53.156;8.220;2022-12-18T10:49:32;12.30;;;6.83;;
7657;SDS011;8462;53.156;8.220;2022-12-18T10:52:05;12.70;;;7.70;;
7657;SDS011;8462;53.156;8.220;2022-12-18T10:54:38;11.20;;;7.00;;
7657;SDS011;8462;53.156;8.220;2022-12-18T10:57:15;11.80;;;7.80;;
7657;SDS011;8462;53.156;8.220;2022-12-18T10:59:51;12.13;;;7.23;;
7657;SDS011;8462;53.156;8.220;2022-12-18T11:02:26;12.70;;;6.37;;
7657;SDS011;8462;53.156;8.220;2022-12-18T11:05:00;12.10;;;6.23;;
7657;SDS011;8462;53.156;8.220;2022-12-18T11:07:33;11.30;;;6.50;;
7657;SDS011;8462;53.156;8.220;2022-12-18T11:10:17;7.50;;;4.17;;
7657;SDS011;8462;53.156;8.220;2022-12-18T11:12:45;7.87;;;5.17;;
7657;SDS011;8462;53.156;8.220;2022-12-18T11:15:16;11.27;;;6.23;;
7657;SDS011;8462;53.156;8.220;2022-12-18T11:17:47;10.20;;;5.93;;
7657;SDS011;8462;53.156;8.220;2022-12-18T11:20:30;9.43;;;5.77;;
7657;SDS011;8462;53.156;8.220;2022-12-18T11:22:59;10.20;;;6.80;;
7657;SDS011;8462;53.156;8.220;2022-12-18T11:25:28;14.10;;;7.57;;
7657;SDS011;8462;53.156;8.220;2022-12-18T11:27:58;11.33;;;7.07;;
7657;SDS011;8462;53.156;8.220;2022-12-18T11:30:27;10.87;;;6.50;;
7657;SDS011;8462;53.156;8.220;2022-12-18T11:32:56;10.47;;;5.90;;
7657;SDS011;8462;53.156;8.220;2022-12-18T11:35:32;12.00;;;7.17;;
7657;SDS011;8462;53.156;8.220;2022-12-18T11:38:06;12.63;;;5.80;;
7657;SDS011;8462;53.156;8.220;2022-12-18T11:40:40;11.50;;;6.23;;
7657;SDS011;8462;53.156;8.220;2022-12-18T11:43:13;8.33;;;5.47;;
7657;SDS011;8462;53.156;8.220;2022-12-18T11:45:46;11.43;;;6.17;;
7657;SDS011;8462;53.156;8.220;2022-12-18T11:48:18;10.07;;;5.80;;
7657;SDS011;8462;53.156;8.220;2022-12-18T11:50:49;9.90;;;5.17;;
7657;SDS011;8462;53.156;8.220;2022-12-18T11:53:17;12.47;;;6.57;;
7657;SDS011;8462;53.156;8.220;2022-12-18T11:55:49;13.43;;;7.07;;
7657;SDS011;8462;53.156;8.220;2022-12-18T11:58:27;10.83;;;6.63;;
7657;SDS011;8462;53.156;8.220;2022-12-18T12:01:06;10.10;;;5.60;;
7657;SDS011;8462;53.156;8.220;2022-12-18T12:03:51;10.77;;;5.97;;
7657;SDS011;8462;53.156;8.220;2022-12-18T12:06:45;8.00;;;5.37;;
7657;SDS011;8462;53.156;8.220;2022-12-18T12:09:21;9.57;;;5.93;;
7657;SDS011;8462;53.156;8.220;2022-12-18T12:11:58;10.80;;;6.30;;
7657;SDS011;8462;53.156;8.220;2022-12-18T12:14:43;10.67;;;6.27;;
7657;SDS011;8462;53.156;8.220;2022-12-18T12:17:18;8.03;;;5.83;;
7657;SDS011;8462;53.156;8.220;2022-12-18T12:19:53;7.90;;;5.37;;
7657;SDS011;8462;53.156;8.220;2022-12-18T12:22:29;11.37;;;6.47;;
7657;SDS011;8462;53.156;8.220;2022-12-18T12:25:07;9.93;;;6.00;;
7657;SDS011;8462;53.156;8.220;2022-12-18T12:27:53;11.43;;;6.17;;
7657;SDS011;8462;53.156;8.220;2022-12-18T12:30:29;8.73;;;5.33;;
7657;SDS011;8462;53.156;8.220;2022-12-18T12:33:04;8.27;;;5.30;;
7657;SDS011;8462;53.156;8.220;2022-12-18T12:35:46;10.60;;;5.80;;
7657;SDS011;8462;53.156;8.220;2022-12-18T12:38:19;11.27;;;5.97;;
7657;SDS011;8462;53.156;8.220;2022-12-18T12:40:51;8.53;;;5.27;;
7657;SDS011;8462;53.156;8.220;2022-12-18T12:43:27;12.27;;;5.90;;
7657;SDS011;8462;53.156;8.220;2022-12-18T12:45:58;8.23;;;4.90;;
7657;SDS011;8462;53.156;8.220;2022-12-18T12:48:40;9.27;;;5.20;;
7657;SDS011;8462;53.156;8.220;2022-12-18T12:51:12;9.73;;;4.90;;
7657;SDS011;8462;53.156;8.220;2022-12-18T12:53:43;8.03;;;5.63;;
7657;SDS011;8462;53.156;8.220;2022-12-18T12:56:12;10.40;;;5.40;;
7657;SDS011;8462;53.156;8.220;2022-12-18T12:58:45;9.60;;;6.27;;
7657;SDS011;8462;53.156;8.220;2022-12-18T13:01:25;8.23;;;5.03;;
7657;SDS011;8462;53.156;8.220;2022-12-18T13:04:02;13.70;;;6.77;;
7657;SDS011;8462;53.156;8.220;2022-12-18T13:06:40;9.10;;;5.70;;
7657;SDS011;8462;53.156;8.220;2022-12-18T13:09:11;9.23;;;5.70;;
7657;SDS011;8462;53.156;8.220;2022-12-18T13:11:39;7.43;;;4.83;;
7657;SDS011;8462;53.156;8.220;2022-12-18T13:14:26;8.83;;;5.57;;
7657;SDS011;8462;53.156;8.220;2022-12-18T13:17:14;8.30;;;5.20;;
7657;SDS011;8462;53.156;8.220;2022-12-18T13:20:02;8.30;;;4.73;;
7657;SDS011;8462;53.156;8.220;2022-12-18T13:22:39;7.30;;;5.20;;
7657;SDS011;8462;53.156;8.220;2022-12-18T13:25:28;7.40;;;4.90;;
7657;SDS011;8462;53.156;8.220;2022-12-18T13:28:08;9.17;;;5.87;;
7657;SDS011;8462;53.156;8.220;2022-12-18T13:30:42;9.67;;;5.47;;
7657;SDS011;8462;53.156;8.220;2022-12-18T13:36:08;11.37;;;5.63;;
7657;SDS011;8462;53.156;8.220;2022-12-18T13:38:39;7.57;;;3.60;;
7657;SDS011;8462;53.156;8.220;2022-12-18T13:41:21;11.77;;;5.47;;
7657;SDS011;8462;53.156;8.220;2022-12-18T13:43:50;6.37;;;2.53;;
7657;SDS011;8462;53.156;8.220;2022-12-18T13:46:21;9.50;;;5.70;;
7657;SDS011;8462;53.156;8.220;2022-12-18T13:48:52;9.50;;;5.27;;
7657;SDS011;8462;53.156;8.220;2022-12-18T13:51:21;7.73;;;5.33;;
7657;SDS011;8462;53.156;8.220;2022-12-18T13:53:50;10.60;;;5.80;;
7657;SDS011;8462;53.156;8.220;2022-12-18T13:56:21;5.77;;;3.87;;
7657;SDS011;8462;53.156;8.220;2022-12-18T13:59:05;7.80;;;3.97;;
7657;SDS011;8462;53.156;8.220;2022-12-18T14:01:43;11.50;;;5.50;;
7657;SDS011;8462;53.156;8.220;2022-12-18T14:04:12;9.23;;;5.47;;
7657;SDS011;8462;53.156;8.220;2022-12-18T14:06:46;6.43;;;4.60;;
7657;SDS011;8462;53.156;8.220;2022-12-18T14:09:14;9.37;;;5.60;;
7657;SDS011;8462;53.156;8.220;2022-12-18T14:11:45;10.13;;;5.53;;
7657;SDS011;8462;53.156;8.220;2022-12-18T14:14:13;8.23;;;4.13;;
7657;SDS011;8462;53.156;8.220;2022-12-18T14:16:43;8.50;;;5.10;;
7657;SDS011;8462;53.156;8.220;2022-12-18T14:19:12;7.87;;;4.87;;
7657;SDS011;8462;53.156;8.220;2022-12-18T14:21:45;10.87;;;6.33;;
7657;SDS011;8462;53.156;8.220;2022-12-18T14:24:14;11.40;;;3.80;;
7657;SDS011;8462;53.156;8.220;2022-12-18T14:26:42;11.07;;;6.60;;
7657;SDS011;8462;53.156;8.220;2022-12-18T14:29:18;7.27;;;4.60;;
7657;SDS011;8462;53.156;8.220;2022-12-18T14:34:37;16.57;;;9.43;;
7657;SDS011;8462;53.156;8.220;2022-12-18T14:37:04;13.20;;;7.10;;
7657;SDS011;8462;53.156;8.220;2022-12-18T14:39:35;10.83;;;6.47;;
7657;SDS011;8462;53.156;8.220;2022-12-18T14:42:02;8.53;;;5.83;;
7657;SDS011;8462;53.156;8.220;2022-12-18T14:44:29;9.87;;;5.23;;
7657;SDS011;8462;53.156;8.220;2022-12-18T14:46:56;11.70;;;5.57;;
7657;SDS011;8462;53.156;8.220;2022-12-18T14:49:24;8.73;;;5.07;;
7657;SDS011;8462;53.156;8.220;2022-12-18T14:51:56;12.50;;;6.30;;
7657;SDS011;8462;53.156;8.220;2022-12-18T14:54:28;9.13;;;5.80;;
7657;SDS011;8462;53.156;8.220;2022-12-18T14:56:56;8.70;;;5.37;;
7657;SDS011;8462;53.156;8.220;2022-12-18T14:59:27;9.17;;;4.47;;
7657;SDS011;8462;53.156;8.220;2022-12-18T15:02:03;6.87;;;4.20;;
7657;SDS011;8462;53.156;8.220;2022-12-18T15:04:39;7.90;;;4.83;;
7657;SDS011;8462;53.156;8.220;2022-12-18T15:07:12;5.87;;;3.17;;
7657;SDS011;8462;53.156;8.220;2022-12-18T15:09:41;7.03;;;5.17;;
7657;SDS011;8462;53.156;8.220;2022-12-18T15:12:22;8.70;;;5.67;;
7657;SDS011;8462;53.156;8.220;2022-12-18T15:14:54;10.40;;;5.33;;
7657;SDS011;8462;53.156;8.220;2022-12-18T15:17:22;6.23;;;4.30;;
7657;SDS011;8462;53.156;8.220;2022-12-18T15:19:51;8.60;;;5.20;;
7657;SDS011;8462;53.156;8.220;2022-12-18T15:22:21;6.83;;;4.70;;
7657;SDS011;8462;53.156;8.220;2022-12-18T15:24:51;9.47;;;4.73;;
7657;SDS011;8462;53.156;8.220;2022-12-18T15:27:20;8.03;;;5.07;;